createdAt,value
2022-10-15T07:33:12.969Z,1460.00
2022-10-15T07:34:12.927Z,1676.00
2022-10-15T07:35:12.909Z,1816.00
2022-10-15T07:36:12.896Z,1864.00
2022-10-15T07:37:12.884Z,1896.00
2022-10-15T07:38:12.947Z,1896.00
2022-10-15T07:39:12.867Z,1884.00
2022-10-15T07:40:12.850Z,2076.00
2022-10-15T07:41:12.849Z,2184.00
2022-10-15T07:43:12.888Z,2236.00
2022-10-15T07:44:12.814Z,2168.00
2022-10-15T07:45:12.800Z,2544.00
2022-10-15T07:46:12.790Z,2796.00
2022-10-15T07:47:12.861Z,2852.00
2022-10-15T07:48:12.794Z,3260.00
2022-10-15T07:49:12.776Z,2868.00
2022-10-15T07:50:12.737Z,3304.00
2022-10-15T07:51:12.844Z,2908.00
2022-10-15T07:52:12.722Z,2544.00
2022-10-15T07:53:12.729Z,2220.00
2022-10-15T07:54:12.694Z,2168.00
2022-10-15T07:55:12.687Z,2020.00
2022-10-15T07:56:12.693Z,1884.00
2022-10-15T07:57:12.665Z,1868.00
2022-10-15T07:58:12.667Z,1956.00
2022-10-15T07:59:12.824Z,2240.00
2022-10-15T08:00:12.639Z,2240.00
2022-10-15T08:01:12.620Z,2344.00
2022-10-15T08:02:12.611Z,2420.00
2022-10-15T08:03:12.617Z,2392.00
2022-10-15T08:04:12.588Z,2396.00
2022-10-15T08:05:12.589Z,2160.00
2022-10-15T08:06:12.569Z,1992.00
2022-10-15T08:07:12.546Z,1856.00
2022-10-15T08:08:12.561Z,1808.00
2022-10-15T08:09:12.580Z,1756.00
2022-10-15T08:10:12.518Z,1724.00
2022-10-15T08:11:12.500Z,1648.00
2022-10-15T08:12:12.488Z,1568.00
2022-10-15T08:13:12.501Z,1456.00
2022-10-15T08:14:12.473Z,1424.00
2022-10-15T08:15:12.455Z,1480.00
2022-10-15T08:16:12.456Z,1580.00
2022-10-15T08:17:12.440Z,1656.00
2022-10-15T08:18:12.442Z,1724.00
2022-10-15T08:19:12.638Z,1860.00
2022-10-15T08:20:12.402Z,1996.00
2022-10-15T08:21:12.406Z,2188.00
2022-10-15T08:22:12.377Z,2420.00
2022-10-15T08:23:12.382Z,2764.00
2022-10-15T08:24:12.365Z,2968.00
2022-10-15T08:25:12.344Z,3108.00
2022-10-15T08:26:12.345Z,3232.00
2022-10-15T08:27:12.333Z,3176.00
2022-10-15T08:28:12.330Z,2876.00
2022-10-15T08:29:12.390Z,2736.00
2022-10-15T08:30:12.296Z,2688.00
2022-10-15T08:31:12.281Z,2320.00
2022-10-15T08:32:12.273Z,2012.00
2022-10-15T08:33:12.279Z,1892.00
2022-10-15T08:34:12.248Z,1880.00
2022-10-15T08:35:12.253Z,1884.00
2022-10-15T08:36:12.230Z,2056.00
2022-10-15T08:37:12.226Z,2468.00
2022-10-15T08:38:14.865Z,2692.00
2022-10-15T08:39:13.203Z,2552.00
2022-10-15T08:40:12.174Z,2460.00
2022-10-15T08:41:12.178Z,2808.00
2022-10-15T08:42:12.169Z,3324.00
2022-10-15T08:43:12.175Z,3120.00
2022-10-15T08:44:12.155Z,2960.00
2022-10-15T08:45:12.123Z,2840.00
2022-10-15T08:46:12.152Z,3252.00
2022-10-15T08:47:12.099Z,3048.00
2022-10-15T08:48:12.095Z,3060.00
2022-10-15T08:49:12.101Z,2820.00
2022-10-15T08:50:12.071Z,2736.00
2022-10-15T08:51:12.056Z,2968.00
2022-10-15T08:52:12.053Z,3200.00
2022-10-15T08:53:12.058Z,3296.00
2022-10-15T08:54:12.052Z,3416.00
2022-10-15T08:55:12.098Z,3148.00
2022-10-15T08:56:12.007Z,2576.00
2022-10-15T08:57:12.003Z,2236.00
2022-10-15T08:58:11.978Z,2072.00
2022-10-15T08:59:11.980Z,2072.00
2022-10-15T09:00:11.955Z,2064.00
2022-10-15T09:01:11.951Z,2344.00
2022-10-15T09:02:11.940Z,2960.00
2022-10-15T09:03:12.012Z,3700.00
2022-10-15T09:04:11.929Z,4104.00
2022-10-15T09:05:11.907Z,3424.00
2022-10-15T09:06:11.895Z,2804.00
2022-10-15T09:07:11.885Z,2424.00
2022-10-15T09:08:11.873Z,2072.00
2022-10-15T09:09:12.034Z,1856.00
2022-10-15T09:10:11.855Z,1732.00
2022-10-15T09:11:11.833Z,1908.00
2022-10-15T09:12:11.833Z,2096.00
2022-10-15T09:13:15.422Z,2200.00
2022-10-15T09:14:11.849Z,2516.00
2022-10-15T09:15:11.789Z,2552.00
2022-10-15T09:16:11.796Z,2648.00
2022-10-15T09:17:11.774Z,2496.00
2022-10-15T09:18:11.775Z,2324.00
2022-10-15T09:19:11.779Z,2452.00
2022-10-15T09:20:11.733Z,2332.00
2022-10-15T09:21:11.727Z,2332.00
2022-10-15T09:22:11.720Z,2512.00
2022-10-15T09:23:11.708Z,2408.00
2022-10-15T09:24:11.722Z,2784.00
2022-10-15T09:25:11.698Z,2636.00
2022-10-15T09:26:11.667Z,2500.00
2022-10-15T09:27:11.664Z,2384.00
2022-10-15T09:28:11.646Z,2268.00
2022-10-15T09:29:11.645Z,2336.00
2022-10-15T09:30:11.628Z,2536.00
2022-10-15T09:31:11.617Z,2928.00
2022-10-15T09:32:11.604Z,3552.00
2022-10-15T09:33:11.592Z,3268.00
2022-10-15T09:34:11.598Z,2916.00
2022-10-15T09:35:11.566Z,2556.00
2022-10-15T09:36:11.559Z,3320.00
2022-10-15T09:37:11.542Z,4268.00
2022-10-15T09:38:11.529Z,4764.00
2022-10-15T09:39:11.541Z,4424.00
2022-10-15T09:40:11.528Z,3936.00
2022-10-15T09:41:11.523Z,3820.00
2022-10-15T09:42:11.489Z,3540.00
2022-10-15T09:43:11.482Z,3208.00
2022-10-15T09:44:11.483Z,3412.00
2022-10-15T09:45:11.459Z,3656.00
2022-10-15T09:46:11.446Z,3940.00
2022-10-15T09:47:11.427Z,3708.00
2022-10-15T09:48:11.415Z,3808.00
2022-10-15T09:49:11.423Z,3868.00
2022-10-15T09:50:11.486Z,3764.00
2022-10-15T09:51:11.385Z,2844.00
2022-10-15T09:52:11.369Z,2344.00
2022-10-15T09:53:11.361Z,2608.00
2022-10-15T09:54:11.370Z,2816.00
2022-10-15T09:55:11.347Z,3136.00
2022-10-15T09:56:11.325Z,3360.00
2022-10-15T09:57:11.339Z,3244.00
2022-10-15T09:58:11.301Z,3748.00
2022-10-15T09:59:11.303Z,3780.00
2022-10-15T10:00:11.286Z,4076.00
2022-10-15T10:01:11.267Z,3304.00
2022-10-15T10:02:11.375Z,2572.00
2022-10-15T10:03:11.250Z,2156.00
2022-10-15T10:04:11.241Z,2064.00
2022-10-15T10:05:11.225Z,2088.00
2022-10-15T10:06:11.230Z,2540.00
2022-10-15T10:07:11.208Z,3100.00
2022-10-15T10:08:11.187Z,2824.00
2022-10-15T10:09:11.198Z,2492.00
2022-10-15T10:10:11.168Z,2652.00
2022-10-15T10:11:11.158Z,3120.00
2022-10-15T10:12:11.141Z,3864.00
2022-10-15T10:13:11.154Z,4788.00
2022-10-15T10:14:11.146Z,4708.00
2022-10-15T10:15:11.113Z,4188.00
2022-10-15T10:16:11.101Z,4628.00
2022-10-15T10:17:11.086Z,5724.00
2022-10-15T10:18:11.080Z,7136.00
2022-10-15T10:19:11.081Z,7332.00
2022-10-15T10:20:11.049Z,9288.00
2022-10-15T10:21:11.049Z,8604.00
2022-10-15T10:22:11.028Z,9816.00
2022-10-15T10:23:11.027Z,4960.00
2022-10-15T10:24:11.027Z,6528.00
2022-10-15T10:25:10.997Z,4644.00
2022-10-15T10:26:10.999Z,5744.00
2022-10-15T10:27:10.995Z,5092.00
2022-10-15T10:28:10.961Z,4640.00
2022-10-15T10:29:22.331Z,5144.00
2022-10-15T10:30:11.953Z,4764.00
2022-10-15T10:31:10.930Z,4340.00
2022-10-15T10:32:10.947Z,6268.00
2022-10-15T10:33:10.908Z,4692.00
2022-10-15T10:34:10.917Z,4048.00
2022-10-15T10:35:10.889Z,3528.00
2022-10-15T10:36:10.879Z,3292.00
2022-10-15T10:37:10.866Z,3016.00
2022-10-15T10:38:10.860Z,3204.00
2022-10-15T10:39:10.866Z,3060.00
2022-10-15T10:40:10.832Z,3004.00
2022-10-15T10:41:10.824Z,2684.00
2022-10-15T10:42:10.807Z,2300.00
2022-10-15T10:43:10.794Z,2136.00
2022-10-15T10:44:10.799Z,2116.00
2022-10-15T10:45:13.955Z,1920.00
2022-10-15T10:46:10.758Z,1920.00
2022-10-15T10:47:10.750Z,2004.00
2022-10-15T10:48:10.746Z,1736.00
2022-10-15T10:49:10.747Z,1704.00
2022-10-15T10:50:10.721Z,1900.00
2022-10-15T10:51:12.917Z,2136.00
2022-10-15T10:52:10.699Z,2360.00
2022-10-15T10:53:10.683Z,2036.00
2022-10-15T10:54:10.682Z,2188.00
2022-10-15T10:55:10.730Z,2248.00
2022-10-15T10:56:10.666Z,1988.00
2022-10-15T10:57:10.650Z,2048.00
2022-10-15T10:58:10.633Z,1872.00
2022-10-15T10:59:10.648Z,1276.00
2022-10-15T11:00:10.612Z,1064.00
2022-10-15T11:01:10.693Z,1268.00
2022-10-15T11:02:10.592Z,1156.00
2022-10-15T11:03:10.571Z,1136.00
2022-10-15T11:04:12.853Z,1140.00
2022-10-15T11:05:10.556Z,1176.00
2022-10-15T11:06:10.535Z,1372.00
2022-10-15T11:07:10.532Z,1572.00
2022-10-15T11:08:10.517Z,1588.00
2022-10-15T11:09:10.535Z,1484.00
2022-10-15T11:10:10.497Z,1600.00
2022-10-15T11:11:10.490Z,1648.00
2022-10-15T11:12:10.486Z,2000.00
2022-10-15T11:14:10.468Z,2072.00
2022-10-15T11:15:10.435Z,2096.00
2022-10-15T11:16:10.431Z,1976.00
2022-10-15T11:17:10.452Z,2068.00
2022-10-15T11:18:10.412Z,2256.00
2022-10-15T11:19:18.902Z,2512.00
2022-10-15T11:20:39.012Z,2504.00
2022-10-15T11:21:11.376Z,2336.00
2022-10-15T11:22:10.418Z,1932.00
2022-10-15T11:23:10.347Z,1908.00
2022-10-15T11:24:10.361Z,2012.00
2022-10-15T11:25:10.329Z,2172.00
2022-10-15T11:26:10.322Z,2272.00
2022-10-15T11:27:11.466Z,2500.00
2022-10-15T11:28:10.297Z,2620.00
2022-10-15T11:29:10.294Z,2440.00
2022-10-15T11:30:11.151Z,2052.00
2022-10-15T11:31:10.317Z,2084.00
2022-10-15T11:32:15.080Z,2300.00
2022-10-15T11:33:11.527Z,2884.00
2022-10-15T11:34:10.256Z,3188.00
2022-10-15T11:35:10.221Z,2988.00
2022-10-15T11:36:10.216Z,2908.00
2022-10-15T11:37:10.192Z,3188.00
2022-10-15T11:38:10.195Z,3480.00
2022-10-15T11:39:10.183Z,2972.00
2022-10-15T11:40:10.166Z,2280.00
2022-10-15T11:41:10.166Z,2320.00
2022-10-15T11:42:10.145Z,2088.00
2022-10-15T11:43:10.125Z,2080.00
2022-10-15T11:44:10.126Z,1924.00
2022-10-15T11:45:10.115Z,1924.00
2022-10-15T11:46:10.093Z,2324.00
2022-10-15T11:47:10.141Z,2216.00
2022-10-15T11:48:10.090Z,1964.00
2022-10-15T11:49:10.098Z,2024.00
2022-10-15T11:50:10.068Z,1800.00
2022-10-15T11:51:10.048Z,1500.00
2022-10-15T11:52:10.035Z,1300.00
2022-10-15T11:53:10.038Z,1444.00
2022-10-15T11:54:10.019Z,1604.00
2022-10-15T11:55:10.012Z,1728.00
2022-10-15T11:56:09.986Z,1504.00
2022-10-15T11:57:09.973Z,1328.00
2022-10-15T11:58:09.958Z,1480.00
2022-10-15T11:59:09.963Z,1520.00
2022-10-15T12:00:09.936Z,1616.00
2022-10-15T12:01:09.935Z,1468.00
2022-10-15T12:02:09.923Z,1308.00
2022-10-15T12:03:09.962Z,1188.00
2022-10-15T12:04:09.947Z,1184.00
2022-10-15T12:05:09.901Z,1148.00
2022-10-15T12:06:09.876Z,1232.00
2022-10-15T12:07:09.866Z,1184.00
2022-10-15T12:08:09.853Z,1064.00
2022-10-15T12:09:09.854Z,1240.00
2022-10-15T12:10:09.833Z,1264.00
2022-10-15T12:11:09.812Z,1264.00
2022-10-15T12:12:09.810Z,1428.00
2022-10-15T12:13:09.801Z,1336.00
2022-10-15T12:14:09.896Z,1084.00
2022-10-15T12:15:09.769Z,1004.00
2022-10-15T12:16:09.757Z,1512.00
2022-10-15T12:18:09.741Z,1916.00
2022-10-15T12:19:09.724Z,2028.00
2022-10-15T12:20:09.737Z,2440.00
2022-10-15T12:21:09.727Z,2856.00
2022-10-15T12:22:09.699Z,2748.00
2022-10-15T12:23:09.679Z,2632.00
2022-10-15T12:24:09.689Z,2644.00
2022-10-15T12:25:09.657Z,2812.00
2022-10-15T12:26:09.699Z,3024.00
2022-10-15T12:27:09.634Z,2948.00
2022-10-15T12:28:09.635Z,2860.00
2022-10-15T12:29:09.656Z,2908.00
2022-10-15T12:30:09.607Z,2832.00
2022-10-15T12:31:09.592Z,2532.00
2022-10-15T12:32:09.596Z,2216.00
2022-10-15T12:33:09.593Z,2432.00
2022-10-15T12:34:09.579Z,2420.00
2022-10-15T12:35:09.625Z,2172.00
2022-10-15T12:36:09.612Z,1988.00
2022-10-15T12:37:09.548Z,1800.00
2022-10-15T12:38:09.511Z,1720.00
2022-10-15T12:39:17.605Z,1792.00
2022-10-15T12:40:10.491Z,1484.00
2022-10-15T12:41:09.486Z,1332.00
2022-10-15T12:42:09.482Z,1796.00
2022-10-15T12:43:09.466Z,2320.00
2022-10-15T12:44:09.492Z,2876.00
2022-10-15T12:45:09.441Z,2980.00
2022-10-15T12:46:09.435Z,3172.00
2022-10-15T12:47:09.412Z,3476.00
2022-10-15T12:48:09.402Z,3028.00
2022-10-15T12:49:09.401Z,3084.00
2022-10-15T12:50:09.387Z,3204.00
2022-10-15T12:51:09.372Z,3372.00
2022-10-15T12:52:09.362Z,3448.00
2022-10-15T12:53:09.365Z,3376.00
2022-10-15T12:54:09.364Z,3544.00
2022-10-15T12:55:09.331Z,3224.00
2022-10-15T12:56:09.309Z,3552.00
2022-10-15T12:57:09.299Z,3244.00
2022-10-15T12:58:09.294Z,2776.00
2022-10-15T12:59:09.293Z,2600.00
2022-10-15T13:00:09.275Z,2364.00
2022-10-15T13:01:09.385Z,2560.00
2022-10-15T13:02:09.244Z,2540.00
2022-10-15T13:03:09.233Z,2460.00
2022-10-15T13:04:09.240Z,2624.00
2022-10-15T13:05:09.218Z,2736.00
2022-10-15T13:06:09.205Z,3044.00
2022-10-15T13:07:09.189Z,3460.00
2022-10-15T13:08:09.175Z,3692.00
2022-10-15T13:09:09.199Z,3792.00
2022-10-15T13:10:09.155Z,3648.00
2022-10-15T13:11:09.144Z,3684.00
2022-10-15T13:12:09.138Z,3276.00
2022-10-15T13:13:09.129Z,2656.00
2022-10-15T13:14:09.128Z,2448.00
2022-10-15T13:15:09.106Z,2324.00
2022-10-15T13:16:09.099Z,2200.00
2022-10-15T13:17:09.078Z,2088.00
2022-10-15T13:18:09.082Z,2212.00
2022-10-15T13:19:09.081Z,2292.00
2022-10-15T13:20:09.054Z,2260.00
2022-10-15T13:21:11.393Z,2048.00
2022-10-15T13:22:09.033Z,1920.00
2022-10-15T13:23:18.743Z,1868.00
2022-10-15T13:24:10.022Z,1924.00
2022-10-15T13:25:09.017Z,1736.00
2022-10-15T13:26:08.985Z,1696.00
2022-10-15T13:27:08.969Z,1816.00
2022-10-15T13:28:12.109Z,2184.00
2022-10-15T13:29:09.967Z,2564.00
2022-10-15T13:30:08.960Z,2568.00
2022-10-15T13:31:08.924Z,3292.00
2022-10-15T13:32:08.911Z,2272.00
2022-10-15T13:33:08.907Z,2220.00
2022-10-15T13:34:08.909Z,2152.00
2022-10-15T13:35:08.886Z,2060.00
2022-10-15T13:36:08.875Z,1996.00
2022-10-15T13:37:08.858Z,1884.00
2022-10-15T13:38:08.849Z,1820.00
2022-10-15T13:39:08.848Z,1920.00
2022-10-15T13:40:08.837Z,2048.00
2022-10-15T13:41:08.842Z,2000.00
2022-10-15T13:42:08.809Z,2008.00
2022-10-15T13:43:08.798Z,1976.00
2022-10-15T13:44:08.799Z,1936.00
2022-10-15T13:45:08.775Z,1864.00
2022-10-15T13:46:08.759Z,1936.00
2022-10-15T13:47:08.756Z,1728.00
2022-10-15T13:48:08.735Z,1680.00
2022-10-15T13:49:08.747Z,1520.00
2022-10-15T13:50:08.720Z,1600.00
2022-10-15T13:51:08.706Z,1644.00
2022-10-15T13:52:08.689Z,1520.00
2022-10-15T13:53:08.678Z,1388.00
2022-10-15T13:54:08.729Z,1288.00
2022-10-15T13:55:08.662Z,1184.00
2022-10-15T13:56:08.643Z,1116.00
2022-10-15T13:57:08.668Z,1204.00
2022-10-15T13:58:08.628Z,1360.00
2022-10-15T13:59:08.635Z,1544.00
2022-10-15T14:00:08.601Z,1540.00
2022-10-15T14:01:08.679Z,1292.00
2022-10-15T14:02:08.582Z,1084.00
2022-10-15T14:03:08.568Z,984.00
2022-10-15T14:04:08.594Z,1012.00
2022-10-15T14:05:08.552Z,1264.00
2022-10-15T14:06:08.536Z,1576.00
2022-10-15T14:07:08.545Z,1808.00
2022-10-15T14:08:08.519Z,1948.00
2022-10-15T14:09:08.520Z,1980.00
2022-10-15T14:10:08.496Z,2344.00
2022-10-15T14:11:08.483Z,2320.00
2022-10-15T14:12:08.476Z,2352.00
2022-10-15T14:13:08.481Z,2836.00
2022-10-15T14:14:08.465Z,2432.00
2022-10-15T14:15:08.436Z,2388.00
2022-10-15T14:16:08.441Z,2684.00
2022-10-15T14:17:08.416Z,2488.00
2022-10-15T14:18:08.409Z,2528.00
2022-10-15T14:19:08.410Z,2516.00
2022-10-15T14:20:26.477Z,2568.00
2022-10-15T14:21:09.376Z,2264.00
2022-10-15T14:22:08.354Z,1924.00
2022-10-15T14:23:08.347Z,1812.00
2022-10-15T14:24:08.349Z,1948.00
2022-10-15T14:25:08.392Z,1960.00
2022-10-15T14:26:08.309Z,2140.00
2022-10-15T14:27:08.298Z,2072.00
2022-10-15T14:28:08.308Z,2092.00
2022-10-15T14:29:08.318Z,1884.00
2022-10-15T14:30:11.253Z,1760.00
2022-10-15T14:31:08.253Z,1776.00
2022-10-15T14:32:08.252Z,1740.00
2022-10-15T14:33:08.228Z,1676.00
2022-10-15T14:34:08.316Z,1644.00
2022-10-15T14:35:10.783Z,1680.00
2022-10-15T14:36:08.210Z,1644.00
2022-10-15T14:37:08.194Z,1548.00
2022-10-15T14:38:08.186Z,1476.00
2022-10-15T14:39:08.174Z,1432.00
2022-10-15T14:40:08.278Z,1408.00
2022-10-15T14:41:08.148Z,1420.00
2022-10-15T14:42:08.131Z,1444.00
2022-10-15T14:43:08.134Z,1412.00
2022-10-15T14:44:08.129Z,1412.00
2022-10-15T14:45:08.127Z,1448.00
2022-10-15T14:46:08.098Z,1452.00
2022-10-15T14:47:08.139Z,1428.00
2022-10-15T14:48:08.064Z,1404.00
2022-10-15T14:49:08.073Z,1384.00
2022-10-15T14:50:08.041Z,1328.00
2022-10-15T14:51:08.029Z,1272.00
2022-10-15T14:52:08.018Z,1236.00
2022-10-15T14:53:08.007Z,1240.00
2022-10-15T14:54:08.015Z,1252.00
2022-10-15T14:55:10.524Z,1232.00
2022-10-15T14:56:08.976Z,1284.00
2022-10-15T14:57:07.968Z,1288.00
2022-10-15T14:58:07.960Z,1352.00
2022-10-15T14:59:07.958Z,1460.00
2022-10-15T15:00:07.929Z,1512.00
2022-10-15T15:01:07.960Z,1440.00
2022-10-15T15:02:07.914Z,1376.00
2022-10-15T15:03:07.948Z,1240.00
2022-10-15T15:04:07.932Z,1192.00
2022-10-15T15:05:07.872Z,1100.00
2022-10-15T15:06:07.894Z,996.00
2022-10-15T15:07:07.936Z,872.00
2022-10-15T15:08:07.860Z,700.00
2022-10-15T15:09:07.881Z,604.00
2022-10-15T15:10:07.822Z,616.00
2022-10-15T15:11:07.812Z,660.00
2022-10-15T15:12:07.814Z,724.00
2022-10-15T15:13:07.786Z,760.00
2022-10-15T15:14:07.804Z,744.00
2022-10-15T15:15:07.821Z,684.00
2022-10-15T15:16:07.781Z,628.00
2022-10-15T15:17:07.758Z,524.00
2022-10-15T15:18:07.737Z,492.00
2022-10-15T15:19:07.760Z,464.00
2022-10-15T15:20:07.735Z,416.00
2022-10-15T15:21:07.695Z,388.00
2022-10-15T15:22:07.690Z,328.00
2022-10-15T15:23:07.675Z,200.00
2022-10-15T15:24:07.676Z,164.00
2022-10-15T15:25:07.655Z,292.00
2022-10-15T15:26:07.646Z,384.00
2022-10-15T15:27:07.632Z,376.00
2022-10-15T15:28:07.618Z,336.00
2022-10-15T15:29:11.350Z,308.00
2022-10-15T15:30:08.611Z,308.00
2022-10-15T15:31:07.580Z,344.00
2022-10-15T15:32:07.577Z,364.00
2022-10-15T15:33:07.592Z,424.00
2022-10-15T15:34:07.575Z,424.00
2022-10-15T15:35:07.553Z,412.00
2022-10-15T15:36:07.526Z,376.00
2022-10-15T15:37:07.514Z,352.00
2022-10-15T15:38:07.504Z,360.00
2022-10-15T15:39:07.512Z,372.00
2022-10-15T15:40:07.497Z,388.00
2022-10-15T15:41:07.477Z,400.00
2022-10-15T15:42:07.466Z,412.00
2022-10-15T15:43:07.475Z,388.00
2022-10-15T15:44:07.448Z,376.00
2022-10-15T15:45:07.425Z,360.00
2022-10-15T15:46:07.414Z,356.00
2022-10-15T15:47:07.417Z,356.00
2022-10-15T15:48:07.393Z,324.00
2022-10-15T15:49:07.416Z,280.00
2022-10-15T15:50:07.382Z,236.00
2022-10-15T15:51:07.370Z,192.00
2022-10-15T15:52:07.358Z,152.00
2022-10-15T15:53:07.344Z,140.00
2022-10-15T15:54:07.356Z,144.00
2022-10-15T15:55:07.322Z,140.00
2022-10-15T15:56:07.315Z,132.00
2022-10-15T15:57:07.305Z,132.00
2022-10-15T15:58:07.280Z,144.00
2022-10-15T15:59:07.291Z,156.00
2022-10-15T16:00:07.264Z,184.00
2022-10-15T16:01:07.258Z,204.00
2022-10-15T16:02:07.325Z,220.00
2022-10-15T16:03:07.231Z,212.00
2022-10-15T16:04:07.234Z,192.00
2022-10-15T16:05:07.230Z,168.00
2022-10-15T16:06:07.197Z,152.00
2022-10-15T16:07:10.271Z,152.00
2022-10-15T16:08:08.183Z,152.00
2022-10-15T16:09:07.169Z,140.00
2022-10-15T16:10:07.152Z,128.00
2022-10-15T16:11:07.133Z,104.00
2022-10-15T16:12:07.130Z,92.00
2022-10-15T16:13:07.126Z,92.00
2022-10-15T16:14:09.414Z,96.00
2022-10-15T16:15:09.039Z,100.00
2022-10-15T16:16:07.088Z,96.00
2022-10-15T16:17:07.070Z,100.00
2022-10-15T16:18:07.061Z,104.00
2022-10-15T16:19:07.481Z,100.00
2022-10-15T16:20:07.041Z,96.00
2022-10-15T16:21:07.044Z,88.00
2022-10-15T16:22:07.008Z,80.00
2022-10-15T16:23:06.999Z,80.00
2022-10-15T16:24:07.006Z,76.00
2022-10-15T16:25:06.974Z,64.00
2022-10-15T16:26:06.963Z,56.00
2022-10-15T16:27:06.949Z,52.00
2022-10-15T16:28:06.948Z,44.00
2022-10-15T16:29:06.957Z,36.00
2022-10-15T16:30:06.925Z,32.00
2022-10-15T16:31:06.934Z,32.00
2022-10-15T16:32:06.897Z,28.00
2022-10-15T16:34:06.890Z,28.00
2022-10-15T16:35:06.862Z,24.00
2022-10-15T16:36:06.859Z,24.00
2022-10-15T16:37:06.866Z,24.00
2022-10-15T16:38:06.831Z,20.00
2022-10-15T16:39:06.843Z,16.00
2022-10-15T16:40:06.808Z,16.00
2022-10-15T16:41:06.808Z,16.00
2022-10-15T16:42:06.862Z,16.00
2022-10-15T16:43:06.769Z,12.00
2022-10-15T16:44:06.769Z,8.00
2022-10-15T16:45:06.745Z,12.00
2022-10-15T16:46:06.741Z,8.00
2022-10-15T16:47:06.736Z,8.00
2022-10-15T16:48:06.712Z,8.00
2022-10-15T16:49:06.712Z,8.00
2022-10-15T16:50:06.699Z,8.00
2022-10-15T16:51:06.684Z,8.00
2022-10-15T16:52:06.674Z,4.00
2022-10-15T16:53:06.681Z,8.00
2022-10-15T16:54:06.670Z,4.00
2022-10-15T16:55:06.633Z,4.00
2022-10-15T16:56:06.669Z,4.00
2022-10-15T16:57:06.611Z,4.00
2022-10-15T16:58:06.616Z,0.00
2022-10-15T16:59:06.619Z,0.00
2022-10-15T17:00:06.578Z,4.00
2022-10-15T17:01:06.573Z,4.00
2022-10-15T17:02:06.642Z,0.00
2022-10-15T17:03:07.510Z,0.00
2022-10-15T17:04:06.558Z,0.00
2022-10-15T17:05:06.519Z,0.00
2022-10-15T17:06:06.515Z,0.00
2022-10-15T17:07:06.502Z,0.00
2022-10-15T17:08:06.496Z,0.00
2022-10-15T17:09:06.516Z,0.00
2022-10-15T17:10:09.657Z,0.00
2022-10-15T17:11:07.460Z,0.00
2022-10-15T17:12:06.439Z,0.00
2022-10-15T17:13:06.427Z,0.00
2022-10-15T17:14:06.430Z,0.00
2022-10-15T17:15:06.414Z,0.00
2022-10-15T17:16:06.395Z,0.00
2022-10-15T17:17:06.384Z,0.00
2022-10-15T17:18:06.381Z,0.00
2022-10-15T17:19:06.383Z,0.00
2022-10-15T17:20:06.355Z,0.00
2022-10-15T17:21:06.339Z,0.00
2022-10-15T17:22:06.337Z,0.00
2022-10-15T17:23:06.315Z,0.00
2022-10-15T17:24:06.334Z,0.00
2022-10-15T17:25:06.313Z,0.00
2022-10-15T17:26:06.284Z,0.00
2022-10-15T17:27:06.330Z,0.00
2022-10-15T17:28:06.326Z,0.00
2022-10-15T17:29:06.262Z,0.00
2022-10-15T17:30:06.245Z,0.00
2022-10-15T17:31:06.236Z,0.00
2022-10-15T17:32:06.227Z,0.00
2022-10-15T17:33:06.214Z,0.00
2022-10-15T17:34:06.218Z,0.00
2022-10-15T17:35:06.198Z,0.00
2022-10-15T17:36:06.179Z,0.00
2022-10-15T17:37:06.169Z,0.00
2022-10-15T17:38:06.166Z,0.00
2022-10-15T17:39:06.154Z,0.00
2022-10-15T17:40:06.199Z,0.00
2022-10-15T17:41:06.137Z,0.00
2022-10-15T17:42:06.106Z,0.00
2022-10-15T17:43:06.096Z,0.00
2022-10-15T17:44:06.111Z,0.00
2022-10-15T17:45:06.072Z,0.00
2022-10-15T17:46:06.065Z,0.00
2022-10-15T17:47:06.061Z,0.00
2022-10-15T17:48:06.050Z,0.00
2022-10-15T17:49:06.068Z,0.00
2022-10-15T17:50:06.017Z,0.00
2022-10-15T17:51:06.012Z,0.00
2022-10-15T17:52:06.003Z,0.00
2022-10-15T17:53:05.987Z,0.00
2022-10-15T17:54:06.013Z,0.00
2022-10-15T17:55:05.980Z,0.00
2022-10-15T17:56:05.974Z,0.00
2022-10-15T17:57:05.966Z,0.00
2022-10-15T17:58:05.934Z,0.00
2022-10-15T17:59:05.935Z,0.00
2022-10-15T18:00:05.909Z,0.00
2022-10-15T18:01:05.904Z,0.00
2022-10-15T18:02:05.960Z,0.00
2022-10-15T18:03:05.872Z,0.00
2022-10-15T18:04:05.891Z,0.00
2022-10-15T18:05:05.950Z,0.00
2022-10-15T18:06:05.844Z,0.00
2022-10-15T18:07:05.840Z,0.00
2022-10-15T18:08:05.817Z,0.00
2022-10-15T18:09:05.824Z,0.00
2022-10-15T18:10:05.801Z,0.00
2022-10-15T18:11:05.792Z,0.00
2022-10-15T18:12:05.802Z,0.00
2022-10-15T18:13:05.801Z,0.00
2022-10-15T18:14:05.928Z,0.00
2022-10-15T18:15:05.747Z,0.00
2022-10-15T18:16:05.734Z,0.00
2022-10-15T18:17:05.725Z,0.00
2022-10-15T18:18:05.700Z,0.00
2022-10-15T18:19:05.727Z,0.00
2022-10-15T18:20:05.692Z,0.00
2022-10-15T18:21:05.813Z,0.00
2022-10-15T18:22:05.663Z,0.00
2022-10-15T18:23:05.660Z,0.00
2022-10-15T18:24:05.643Z,0.00
2022-10-15T18:25:05.638Z,0.00
2022-10-15T18:26:05.618Z,0.00
2022-10-15T18:27:05.600Z,0.00
2022-10-15T18:28:05.598Z,0.00
2022-10-15T18:29:05.693Z,0.00
2022-10-15T18:30:05.572Z,0.00
2022-10-15T18:31:05.565Z,0.00
2022-10-15T18:32:05.554Z,0.00
2022-10-15T18:33:05.531Z,0.00
2022-10-15T18:34:05.540Z,0.00
2022-10-15T18:35:05.518Z,0.00
2022-10-15T18:36:05.497Z,0.00
2022-10-15T18:37:05.494Z,0.00
2022-10-15T18:38:05.492Z,0.00
2022-10-15T18:39:05.491Z,0.00
2022-10-15T18:40:05.471Z,0.00
2022-10-15T18:41:05.442Z,0.00
2022-10-15T18:42:05.432Z,0.00
2022-10-15T18:43:05.425Z,0.00
2022-10-15T18:44:05.423Z,0.00
2022-10-15T18:45:05.425Z,0.00
2022-10-15T18:46:05.421Z,0.00
2022-10-15T18:47:05.381Z,0.00
2022-10-15T18:48:05.371Z,0.00
2022-10-15T18:49:06.001Z,0.00
2022-10-15T18:50:05.338Z,0.00
2022-10-15T18:51:05.394Z,0.00
2022-10-15T18:52:15.858Z,0.00
2022-10-15T18:53:06.313Z,0.00
2022-10-15T18:54:05.315Z,0.00
2022-10-15T18:55:05.286Z,0.00
2022-10-15T18:56:05.281Z,0.00
2022-10-15T18:57:05.274Z,0.00
2022-10-15T18:58:05.249Z,0.00
2022-10-15T18:59:05.256Z,0.00
2022-10-15T19:00:05.242Z,0.00
2022-10-15T19:01:05.242Z,0.00
2022-10-15T19:02:05.552Z,0.00
2022-10-15T19:03:05.194Z,0.00
2022-10-15T19:04:05.189Z,0.00
2022-10-15T19:05:05.174Z,0.00
2022-10-15T19:06:05.154Z,0.00
2022-10-15T19:07:05.151Z,0.00
2022-10-15T19:08:05.135Z,0.00
2022-10-15T19:09:05.160Z,0.00
2022-10-15T19:10:05.112Z,0.00
2022-10-15T19:11:05.108Z,0.00
2022-10-15T19:12:05.106Z,0.00
2022-10-15T19:13:05.082Z,0.00
2022-10-15T19:14:05.094Z,0.00
2022-10-15T19:15:05.055Z,0.00
2022-10-15T19:16:05.043Z,0.00
2022-10-15T19:17:05.063Z,0.00
2022-10-15T19:18:05.031Z,0.00
2022-10-15T19:19:05.034Z,0.00
2022-10-15T19:20:04.997Z,0.00
2022-10-15T19:21:04.989Z,0.00
2022-10-15T19:22:04.984Z,0.00
2022-10-15T19:23:04.965Z,0.00
2022-10-15T19:24:04.967Z,0.00
2022-10-15T19:25:04.979Z,0.00
2022-10-15T19:26:04.932Z,0.00
2022-10-15T19:27:04.968Z,0.00
2022-10-15T19:28:04.907Z,0.00
2022-10-15T19:29:04.912Z,0.00
2022-10-15T19:30:04.887Z,0.00
2022-10-15T19:31:04.871Z,0.00
2022-10-15T19:32:04.862Z,0.00
2022-10-15T19:33:04.873Z,0.00
2022-10-15T19:34:04.858Z,0.00
2022-10-15T19:35:04.831Z,0.00
2022-10-15T19:36:04.879Z,0.00
2022-10-15T19:37:04.815Z,0.00
2022-10-15T19:38:04.796Z,0.00
2022-10-15T19:39:04.812Z,0.00
2022-10-15T19:40:04.812Z,0.00
2022-10-15T19:41:04.763Z,0.00
2022-10-15T19:42:04.750Z,0.00
2022-10-15T19:43:04.743Z,0.00
2022-10-15T19:44:04.745Z,0.00
2022-10-15T19:45:04.731Z,0.00
2022-10-15T19:46:04.702Z,0.00
2022-10-15T19:47:04.697Z,0.00
2022-10-15T19:48:04.678Z,0.00
2022-10-15T19:49:04.707Z,0.00
2022-10-15T19:50:04.680Z,0.00
2022-10-15T19:51:04.650Z,0.00
2022-10-15T19:52:04.663Z,0.00
2022-10-15T19:53:04.630Z,0.00
2022-10-15T19:54:04.625Z,0.00
2022-10-15T19:55:04.599Z,0.00
2022-10-15T19:56:04.597Z,0.00
2022-10-15T19:57:04.573Z,0.00
2022-10-15T19:58:04.569Z,0.00
2022-10-15T19:59:04.573Z,0.00
2022-10-15T20:00:04.589Z,0.00
2022-10-15T20:01:04.551Z,0.00
2022-10-15T20:02:04.523Z,0.00
2022-10-15T20:03:04.514Z,0.00
2022-10-15T20:04:06.289Z,0.00